Time;durP1;ratioP1;P1;durP2;ratioP2;P2;SDS_P1;SDS_P2;PMS_P1;PMS_P2;Temp;Humidity;BMP_temperature;BMP_pressure;BME280_temperature;BME280_humidity;BME280_pressure;Samples;Min_cycle;Max_cycle;Signal;HPM_P1;HPM_P2
2020/12/27 00:00:07;;;;;;;7.90;5.20;;;-2.10;49.50;;;;;;5060808;28;37652;-81
2020/12/27 00:02:34;;;;;;;8.20;5.27;;;-2.20;49.60;;;;;;5079011;28;38703;-79
2020/12/27 00:05:01;;;;;;;6.90;4.77;;;-2.20;49.70;;;;;;5059903;28;37235;-80
2020/12/27 00:07:27;;;;;;;9.00;5.40;;;-2.30;49.90;;;;;;5083748;28;39926;-79
2020/12/27 00:09:55;;;;;;;6.87;4.77;;;-2.30;50.10;;;;;;5066298;28;37656;-79
2020/12/27 00:12:22;;;;;;;8.50;5.53;;;-2.30;50.40;;;;;;5064899;28;37585;-80
2020/12/27 00:14:49;;;;;;;7.13;4.93;;;-2.40;50.60;;;;;;5081339;28;36581;-79
2020/12/27 00:17:16;;;;;;;8.87;5.43;;;-2.40;50.70;;;;;;5085465;28;39952;-80
2020/12/27 00:19:43;;;;;;;6.63;4.30;;;-2.40;50.90;;;;;;5081890;28;39444;-80
2020/12/27 00:22:11;;;;;;;6.13;4.43;;;-2.40;51.00;;;;;;5081987;28;38036;-80
2020/12/27 00:24:38;;;;;;;5.40;4.40;;;-2.40;51.00;;;;;;5059623;28;36051;-81
2020/12/27 00:27:06;;;;;;;6.63;4.10;;;-2.50;51.00;;;;;;5073984;28;39762;-81
2020/12/27 00:29:35;;;;;;;6.60;5.20;;;-2.50;51.10;;;;;;5049063;28;38486;-81
2020/12/27 00:32:02;;;;;;;9.60;4.07;;;-2.60;51.30;;;;;;5074373;28;38135;-80
2020/12/27 00:34:29;;;;;;;8.60;4.40;;;-2.60;51.50;;;;;;5078174;28;37011;-79
2020/12/27 00:36:57;;;;;;;6.67;4.40;;;-2.60;51.60;;;;;;5049431;28;38411;-79
2020/12/27 00:39:26;;;;;;;6.47;4.47;;;-2.60;51.70;;;;;;5070480;28;39863;-80
2020/12/27 00:41:58;;;;;;;5.80;4.13;;;-2.60;51.90;;;;;;5074914;28;39030;-81
2020/12/27 00:44:26;;;;;;;5.43;4.60;;;-2.60;52.00;;;;;;5065644;28;37446;-80
2020/12/27 00:46:53;;;;;;;6.00;4.00;;;-2.70;52.10;;;;;;5063137;28;40132;-80
2020/12/27 00:49:21;;;;;;;6.13;4.43;;;-2.70;52.80;;;;;;5055491;28;38971;-80
2020/12/27 00:51:50;;;;;;;6.30;4.10;;;-2.70;52.10;;;;;;5064403;28;37794;-80
2020/12/27 00:54:17;;;;;;;7.63;4.63;;;-2.70;52.30;;;;;;5077913;28;37067;-81
2020/12/27 00:56:50;;;;;;;6.97;4.90;;;-2.70;52.50;;;;;;5064287;28;38336;-80
2020/12/27 00:59:21;;;;;;;8.00;4.30;;;-2.70;52.60;;;;;;5059829;28;39219;-80
2020/12/27 01:01:55;;;;;;;5.27;4.07;;;-2.70;52.50;;;;;;5054470;28;37301;-80
2020/12/27 01:04:51;;;;;;;9.83;4.17;;;-2.70;52.60;;;;;;5054926;28;37061;-81
2020/12/27 01:07:26;;;;;;;4.23;3.40;;;-2.60;52.50;;;;;;5055559;28;38899;-81
2020/12/27 01:10:11;;;;;;;6.80;4.00;;;-2.60;52.50;;;;;;5052531;28;40157;-80
2020/12/27 01:12:38;;;;;;;5.07;4.13;;;-2.60;52.40;;;;;;5067444;28;38850;-80
2020/12/27 01:15:07;;;;;;;4.87;3.50;;;-2.60;52.50;;;;;;5072293;28;37479;-80
2020/12/27 01:17:54;;;;;;;9.00;4.40;;;-2.60;52.60;;;;;;5072661;28;40545;-81
2020/12/27 01:20:22;;;;;;;6.90;4.67;;;-2.60;52.60;;;;;;5046468;28;38692;-80
2020/12/27 01:22:52;;;;;;;7.33;4.73;;;-2.60;52.60;;;;;;5057951;28;36990;-81
2020/12/27 01:25:27;;;;;;;7.50;4.40;;;-2.60;52.60;;;;;;5055737;28;36978;-80
2020/12/27 01:27:54;;;;;;;5.07;4.40;;;-2.60;52.60;;;;;;5055138;28;38359;-81
2020/12/27 01:30:21;;;;;;;7.30;4.93;;;-2.60;52.60;;;;;;5074740;28;38956;-82
2020/12/27 01:32:57;;;;;;;5.87;4.20;;;-2.60;52.70;;;;;;5055280;28;37251;-82
2020/12/27 01:35:24;;;;;;;7.00;4.40;;;-2.60;52.60;;;;;;5046694;28;35738;-82
2020/12/27 01:37:51;;;;;;;6.60;3.73;;;-2.60;52.70;;;;;;5033933;28;39881;-81
2020/12/27 01:40:20;;;;;;;5.77;4.20;;;-2.60;52.70;;;;;;5056226;28;38079;-80
2020/12/27 01:42:53;;;;;;;5.23;4.13;;;-2.60;52.70;;;;;;5071401;28;38448;-80
2020/12/27 01:45:20;;;;;;;4.70;3.47;;;-2.60;52.60;;;;;;5054495;28;35989;-79
2020/12/27 01:48:22;;;;;;;4.37;3.10;;;-2.60;52.50;;;;;;5045358;28;39521;-80
2020/12/27 01:50:57;;;;;;;4.93;3.50;;;-2.60;52.20;;;;;;5040371;28;38110;-79
2020/12/27 01:53:37;;;;;;;5.70;4.70;;;-2.60;52.30;;;;;;5039570;28;37576;-80
2020/12/27 01:56:14;;;;;;;8.87;4.80;;;-2.60;52.20;;;;;;5049060;28;36049;-79
2020/12/27 01:58:46;;;;;;;7.37;4.10;;;-2.60;52.50;;;;;;5054641;28;39523;-80
2020/12/27 02:01:19;;;;;;;5.47;3.87;;;-2.60;52.70;;;;;;5054526;28;37662;-80
2020/12/27 02:03:53;;;;;;;7.10;4.10;;;-2.60;52.70;;;;;;5054450;28;37748;-79
2020/12/27 02:06:27;;;;;;;7.40;4.20;;;-2.60;52.70;;;;;;5055118;28;37147;-79
2020/12/27 02:09:04;;;;;;;6.97;4.20;;;-2.60;52.60;;;;;;5058994;28;38601;-80
2020/12/27 02:11:43;;;;;;;7.87;5.10;;;-2.60;52.60;;;;;;5059614;28;37938;-79
2020/12/27 02:14:11;;;;;;;7.00;4.27;;;-2.60;52.60;;;;;;5060544;28;36578;-80
2020/12/27 02:16:40;;;;;;;6.73;4.97;;;-2.70;52.60;;;;;;5059898;28;36009;-80
2020/12/27 02:19:46;;;;;;;7.47;4.93;;;-2.70;52.90;;;;;;5035223;28;40196;-80
2020/12/27 02:22:23;;;;;;;7.70;5.17;;;-2.80;52.90;;;;;;5035762;28;39091;-79
2020/12/27 02:25:09;;;;;;;6.60;4.97;;;-2.70;53.10;;;;;;5060694;28;38331;-79
2020/12/27 02:27:39;;;;;;;8.13;5.20;;;-2.70;53.20;;;;;;5059649;28;37066;-79
2020/12/27 02:30:07;;;;;;;6.43;5.23;;;-2.80;53.30;;;;;;5077805;28;39601;-79
2020/12/27 02:32:35;;;;;;;9.30;5.57;;;-2.70;53.10;;;;;;5060256;28;38614;-80
2020/12/27 02:35:04;;;;;;;11.67;6.23;;;-2.70;53.00;;;;;;5059370;28;37717;-81
2020/12/27 02:37:31;;;;;;;7.00;4.80;;;-2.70;52.90;;;;;;5058490;28;36343;-80
2020/12/27 02:40:05;;;;;;;7.53;5.67;;;-2.70;52.60;;;;;;5058471;28;38561;-80
2020/12/27 02:42:53;;;;;;;9.10;4.93;;;-2.70;52.70;;;;;;5072178;28;38794;-81
2020/12/27 02:45:20;;;;;;;8.20;6.33;;;-2.70;52.50;;;;;;5058771;28;37447;-79
2020/12/27 02:48:07;;;;;;;7.90;5.63;;;-2.70;52.70;;;;;;5076100;28;36717;-80
2020/12/27 02:51:00;;;;;;;7.50;4.80;;;-2.70;52.60;;;;;;5067440;28;39387;-81
2020/12/27 02:53:30;;;;;;;7.20;4.87;;;-2.70;52.60;;;;;;5058435;28;38289;-79
2020/12/27 02:56:02;;;;;;;9.40;5.37;;;-2.70;52.80;;;;;;5059270;28;36877;-80
2020/12/27 02:58:30;;;;;;;7.33;4.80;;;-2.60;52.60;;;;;;5058622;28;36051;-79
2020/12/27 03:01:00;;;;;;;7.70;5.37;;;-2.60;52.50;;;;;;5058137;28;38286;-80
2020/12/27 03:03:49;;;;;;;9.10;5.07;;;-2.50;52.30;;;;;;5058581;28;37537;-81
2020/12/27 03:06:22;;;;;;;8.43;4.77;;;-2.50;52.00;;;;;;5057947;28;36595;-81
2020/12/27 03:08:55;;;;;;;5.77;3.83;;;-2.30;51.50;;;;;;5057435;28;36053;-80
2020/12/27 03:11:36;;;;;;;6.47;4.50;;;-2.30;50.50;;;;;;5058116;28;38494;-80
2020/12/27 03:14:06;;;;;;;5.03;4.07;;;-2.10;49.60;;;;;;5057640;28;37773;-80
2020/12/27 03:16:35;;;;;;;5.03;3.00;;;-1.80;48.70;;;;;;5057711;28;36831;-81
2020/12/27 03:19:38;;;;;;;5.33;4.10;;;-1.70;48.10;;;;;;4993631;28;37297;-82
2020/12/27 03:22:25;;;;;;;5.17;3.97;;;-1.60;47.70;;;;;;5054237;28;40247;-81
2020/12/27 03:24:58;;;;;;;3.80;3.40;;;-1.50;47.30;;;;;;5057590;28;37804;-81
2020/12/27 03:27:26;;;;;;;5.77;3.90;;;-1.50;47.00;;;;;;5075568;28;38873;-81
2020/12/27 03:29:54;;;;;;;5.27;3.67;;;-1.50;46.80;;;;;;5057875;28;36418;-80
2020/12/27 03:32:28;;;;;;;4.37;3.40;;;-1.40;46.90;;;;;;5057774;28;38289;-81
2020/12/27 03:34:55;;;;;;;5.20;4.23;;;-1.40;46.70;;;;;;5056142;28;40354;-81
2020/12/27 03:37:22;;;;;;;4.33;3.93;;;-1.40;46.40;;;;;;5057952;28;36826;-81
2020/12/27 03:40:12;;;;;;;6.83;4.30;;;-1.30;46.50;;;;;;5050640;28;38209;-81
2020/12/27 03:42:56;;;;;;;5.20;4.20;;;-1.30;46.20;;;;;;5057875;28;39879;-80
2020/12/27 03:45:25;;;;;;;4.87;3.53;;;-1.40;46.20;;;;;;5057640;28;38932;-81
2020/12/27 03:48:15;;;;;;;6.17;4.87;;;-1.30;46.40;;;;;;5032675;28;39017;-80
2020/12/27 03:50:58;;;;;;;6.43;4.40;;;-1.30;46.50;;;;;;5057226;28;35907;-82
2020/12/27 03:53:28;;;;;;;6.80;4.20;;;-1.30;46.50;;;;;;5057005;28;38584;-81
2020/12/27 03:56:23;;;;;;;6.20;4.37;;;-1.30;46.90;;;;;;5039969;28;39247;-83
2020/12/27 03:59:10;;;;;;;7.23;5.07;;;-1.40;46.80;;;;;;5055197;28;38171;-81
2020/12/27 04:01:46;;;;;;;7.13;4.33;;;-1.40;46.90;;;;;;5061401;28;36325;-81
2020/12/27 04:04:13;;;;;;;6.20;4.60;;;-1.50;47.10;;;;;;5058440;28;38471;-80
2020/12/27 04:06:40;;;;;;;6.37;4.57;;;-1.50;47.20;;;;;;5054675;28;38095;-80
2020/12/27 04:09:26;;;;;;;5.30;4.27;;;-1.50;47.10;;;;;;5076348;28;38497;-81
2020/12/27 04:11:53;;;;;;;6.17;5.00;;;-1.60;47.30;;;;;;5064624;28;35852;-79
2020/12/27 04:14:20;;;;;;;6.83;4.83;;;-1.60;47.30;;;;;;5082930;28;40105;-80
2020/12/27 04:16:48;;;;;;;6.90;5.47;;;-1.60;47.40;;;;;;5061885;28;38073;-80
2020/12/27 04:19:17;;;;;;;6.00;5.10;;;-1.60;47.50;;;;;;5062821;28;36449;-80
2020/12/27 04:21:53;;;;;;;8.37;6.10;;;-1.60;47.60;;;;;;5063372;28;37173;-80
2020/12/27 04:24:31;;;;;;;6.60;5.13;;;-1.60;47.70;;;;;;5062800;28;38419;-80
2020/12/27 04:26:58;;;;;;;7.83;6.13;;;-1.60;47.70;;;;;;5064858;28;38570;-80
2020/12/27 04:29:27;;;;;;;10.13;5.67;;;-1.60;47.80;;;;;;5065321;28;36709;-80
2020/12/27 04:31:57;;;;;;;7.10;5.60;;;-1.60;47.70;;;;;;5058668;28;35860;-81
2020/12/27 04:34:44;;;;;;;6.63;5.10;;;-1.60;47.90;;;;;;5059609;28;38646;-81
2020/12/27 04:37:11;;;;;;;7.60;6.27;;;-1.60;48.00;;;;;;5039489;28;38079;-81
2020/12/27 04:39:49;;;;;;;6.50;5.70;;;-1.60;48.00;;;;;;5048641;28;36793;-82
2020/12/27 04:42:16;;;;;;;8.17;6.00;;;-1.60;48.00;;;;;;5056789;28;35937;-82
2020/12/27 04:44:55;;;;;;;8.87;6.10;;;-1.60;48.10;;;;;;5056040;28;39848;-82
2020/12/27 04:47:36;;;;;;;11.60;7.27;;;-1.60;48.00;;;;;;5056205;28;37615;-82
2020/12/27 04:50:23;;;;;;;7.90;5.20;;;-1.60;48.00;;;;;;5057357;28;37710;-82
2020/12/27 04:52:52;;;;;;;9.47;6.80;;;-1.70;48.10;;;;;;5057669;28;36158;-80
2020/12/27 04:55:23;;;;;;;7.73;5.60;;;-1.70;48.30;;;;;;5056779;28;38756;-81
2020/12/27 04:58:15;;;;;;;7.73;6.00;;;-1.70;48.30;;;;;;5072235;28;39839;-81
2020/12/27 05:01:03;;;;;;;9.03;5.93;;;-1.70;48.30;;;;;;5056761;28;37686;-81
2020/12/27 05:03:56;;;;;;;8.83;6.10;;;-1.70;48.40;;;;;;5073194;28;37622;-80
2020/12/27 05:06:24;;;;;;;8.37;6.30;;;-1.70;48.40;;;;;;5054670;28;40002;-80
2020/12/27 05:08:51;;;;;;;9.33;7.00;;;-1.70;48.50;;;;;;5054676;28;38391;-80
2020/12/27 05:11:23;;;;;;;9.17;6.80;;;-1.70;48.50;;;;;;5054963;28;38419;-80
2020/12/27 05:13:56;;;;;;;9.00;5.83;;;-1.80;48.70;;;;;;5055174;28;36732;-80
2020/12/27 05:16:28;;;;;;;8.40;5.93;;;-1.80;48.70;;;;;;5054700;28;38738;-80
2020/12/27 05:18:59;;;;;;;6.80;5.73;;;-1.80;48.70;;;;;;5055395;28;37953;-80
2020/12/27 05:21:37;;;;;;;7.90;6.17;;;-1.80;48.70;;;;;;5055205;28;36822;-80
2020/12/27 05:24:05;;;;;;;7.70;6.00;;;-1.80;48.70;;;;;;5055207;28;35675;-80
2020/12/27 05:26:47;;;;;;;7.30;5.70;;;-1.80;48.70;;;;;;5055100;28;38518;-80
2020/12/27 05:29:34;;;;;;;7.60;5.97;;;-1.80;48.70;;;;;;5056016;28;38729;-80
2020/12/27 05:32:36;;;;;;;8.27;6.10;;;-1.80;48.70;;;;;;5073510;28;38472;-80
2020/12/27 05:35:30;;;;;;;8.03;5.90;;;-1.90;48.60;;;;;;5036091;28;37718;-80
2020/12/27 05:38:03;;;;;;;7.07;5.70;;;-1.90;48.60;;;;;;5055395;28;39742;-79
2020/12/27 05:41:06;;;;;;;8.10;6.80;;;-1.90;48.60;;;;;;5009004;28;39617;-80
2020/12/27 05:43:39;;;;;;;8.60;6.40;;;-1.90;48.80;;;;;;5040611;28;36919;-80
2020/12/27 05:46:11;;;;;;;9.00;6.40;;;-1.90;48.90;;;;;;5055006;28;36394;-80
2020/12/27 05:48:39;;;;;;;7.63;6.20;;;-1.90;48.80;;;;;;5051883;28;39635;-80
2020/12/27 05:51:15;;;;;;;9.70;6.27;;;-1.90;49.10;;;;;;5053162;28;39967;-80
2020/12/27 05:53:49;;;;;;;6.77;5.30;;;-1.90;49.20;;;;;;5055201;28;37502;-80
2020/12/27 05:56:19;;;;;;;6.47;5.37;;;-2.00;49.40;;;;;;5055064;28;37610;-80
2020/12/27 05:58:54;;;;;;;9.33;5.30;;;-2.00;49.50;;;;;;5054596;28;38229;-79
2020/12/27 06:01:27;;;;;;;7.40;5.33;;;-2.00;49.40;;;;;;5055244;28;38238;-80
2020/12/27 06:04:02;;;;;;;6.60;5.17;;;-1.90;49.40;;;;;;5055461;28;37764;-79
2020/12/27 06:07:13;;;;;;;6.73;4.73;;;-1.90;49.30;;;;;;5054806;28;37061;-80
2020/12/27 06:10:01;;;;;;;6.07;4.80;;;-1.80;48.70;;;;;;5044826;28;38539;-79
2020/12/27 06:13:00;;;;;;;7.50;5.20;;;-1.80;48.70;;;;;;5054840;28;37778;-80
2020/12/27 06:15:31;;;;;;;7.00;5.27;;;-1.70;48.80;;;;;;5055054;28;37337;-80
2020/12/27 06:18:28;;;;;;;7.20;4.60;;;-1.70;48.80;;;;;;5018816;28;37581;-79
2020/12/27 06:21:09;;;;;;;8.00;5.20;;;-1.70;48.80;;;;;;5055272;28;38716;-80
2020/12/27 06:23:40;;;;;;;6.20;5.00;;;-1.70;48.40;;;;;;5073258;28;39371;-79
2020/12/27 06:26:10;;;;;;;6.80;4.70;;;-1.70;48.20;;;;;;5054790;28;38858;-79
2020/12/27 06:28:44;;;;;;;6.37;4.80;;;-1.70;48.30;;;;;;5055029;28;37030;-79
2020/12/27 06:31:25;;;;;;;5.73;4.23;;;-1.70;48.10;;;;;;5055091;28;39456;-80
2020/12/27 06:34:22;;;;;;;7.17;5.10;;;-1.70;48.20;;;;;;5055469;28;38163;-79
2020/12/27 06:36:52;;;;;;;5.70;4.30;;;-1.70;48.30;;;;;;5055476;28;36840;-80
2020/12/27 06:39:45;;;;;;;6.93;4.77;;;-1.70;48.20;;;;;;5067067;28;38549;-79
2020/12/27 06:42:28;;;;;;;8.07;4.63;;;-1.70;48.20;;;;;;5055492;28;38273;-80
2020/12/27 06:45:28;;;;;;;9.03;5.27;;;-1.70;48.30;;;;;;5062456;28;37860;-81
2020/12/27 06:48:10;;;;;;;8.30;5.17;;;-1.70;48.50;;;;;;5073416;28;38979;-80
2020/12/27 06:50:50;;;;;;;6.30;4.80;;;-1.70;48.10;;;;;;5054839;28;36739;-79
2020/12/27 06:53:43;;;;;;;6.67;5.70;;;-1.60;48.00;;;;;;5054867;28;38924;-80
2020/12/27 06:56:16;;;;;;;7.40;4.97;;;-1.60;48.00;;;;;;5048380;28;37822;-80
2020/12/27 06:59:08;;;;;;;6.80;5.27;;;-1.60;48.00;;;;;;5042572;28;38438;-80
2020/12/27 07:01:36;;;;;;;6.23;4.60;;;-1.60;48.00;;;;;;5057828;28;36596;-79
2020/12/27 07:04:14;;;;;;;7.30;5.23;;;-1.60;48.00;;;;;;5055508;28;38797;-79
2020/12/27 07:06:48;;;;;;;5.73;4.97;;;-1.60;48.20;;;;;;5047106;28;37753;-79
2020/12/27 07:09:22;;;;;;;6.80;5.37;;;-1.60;48.40;;;;;;5075580;28;38974;-79
2020/12/27 07:12:04;;;;;;;8.10;6.20;;;-1.70;48.80;;;;;;5059461;28;36214;-81
2020/12/27 07:14:38;;;;;;;8.93;6.27;;;-1.80;48.70;;;;;;5079473;28;40723;-81
2020/12/27 07:17:07;;;;;;;8.87;4.80;;;-1.80;49.50;;;;;;5079042;28;39104;-80
2020/12/27 07:19:35;;;;;;;5.57;4.97;;;-1.90;49.10;;;;;;5082240;28;39006;-80
2020/12/27 07:22:04;;;;;;;9.10;5.00;;;-1.80;48.70;;;;;;5063958;28;35641;-79
2020/12/27 07:24:35;;;;;;;5.63;4.97;;;-1.80;48.70;;;;;;5078836;28;40413;-79
2020/12/27 07:27:04;;;;;;;7.43;4.80;;;-1.70;48.40;;;;;;5088312;28;40727;-78
2020/12/27 07:29:33;;;;;;;8.13;5.20;;;-1.60;48.10;;;;;;5090147;28;38638;-78
2020/12/27 07:32:00;;;;;;;5.63;4.50;;;-1.60;48.00;;;;;;5086704;28;38280;-80
2020/12/27 07:34:29;;;;;;;4.43;4.03;;;-1.50;48.00;;;;;;5062459;28;38477;-80
2020/12/27 07:36:58;;;;;;;5.30;4.50;;;-1.50;47.60;;;;;;5059690;28;37540;-80
2020/12/27 07:39:50;;;;;;;4.70;3.73;;;-1.40;47.40;;;;;;5075834;28;38414;-81
2020/12/27 07:42:27;;;;;;;5.50;4.10;;;-1.20;46.60;;;;;;5073706;28;38152;-81
2020/12/27 07:45:00;;;;;;;5.33;4.47;;;-1.20;46.60;;;;;;5057078;28;39675;-80
2020/12/27 07:47:29;;;;;;;5.80;4.03;;;-1.10;46.30;;;;;;5056842;28;38368;-80
2020/12/27 07:50:08;;;;;;;5.40;4.00;;;-1.10;46.10;;;;;;5057380;28;36812;-80
2020/12/27 07:52:49;;;;;;;6.40;4.17;;;-1.00;45.70;;;;;;5076706;28;37174;-80
2020/12/27 07:55:27;;;;;;;6.60;3.63;;;-1.00;45.50;;;;;;5073061;28;39836;-80
2020/12/27 07:57:55;;;;;;;5.70;4.50;;;-0.90;45.50;;;;;;5058549;28;38121;-80
2020/12/27 08:00:25;;;;;;;5.93;4.73;;;-0.80;45.60;;;;;;5057507;28;36831;-80
2020/12/27 08:02:52;;;;;;;5.83;4.50;;;-0.80;45.60;;;;;;5075111;28;37418;-80
2020/12/27 08:05:20;;;;;;;4.90;3.67;;;-0.70;45.40;;;;;;5055795;28;39306;-81
2020/12/27 08:07:48;;;;;;;14.23;5.07;;;-0.70;45.40;;;;;;5076391;28;39019;-80
2020/12/27 08:10:21;;;;;;;6.10;4.73;;;-0.60;45.60;;;;;;5074938;28;38673;-80
2020/12/27 08:12:50;;;;;;;8.40;4.07;;;-0.60;45.40;;;;;;5076211;28;36809;-80
2020/12/27 08:15:17;;;;;;;5.47;3.60;;;-0.50;45.50;;;;;;5056458;28;38674;-80
2020/12/27 08:17:59;;;;;;;5.47;4.10;;;-0.50;45.00;;;;;;5075034;28;39553;-80
2020/12/27 08:20:28;;;;;;;6.00;4.60;;;-0.40;44.90;;;;;;5075800;28;38722;-80
2020/12/27 08:23:03;;;;;;;5.93;4.17;;;-0.20;45.20;;;;;;5077678;28;37238;-80
2020/12/27 08:25:31;;;;;;;8.40;4.80;;;-0.20;44.20;;;;;;5075947;28;39629;-80
2020/12/27 08:28:03;;;;;;;7.40;4.50;;;-0.10;44.20;;;;;;5076536;28;39045;-81
2020/12/27 08:30:30;;;;;;;5.80;4.30;;;0.00;44.00;;;;;;5074952;28;38929;-80
2020/12/27 08:33:11;;;;;;;4.30;3.83;;;0.10;43.90;;;;;;5068861;28;37197;-81
2020/12/27 08:35:39;;;;;;;5.60;4.10;;;0.20;43.30;;;;;;5055055;28;39182;-80
2020/12/27 08:38:31;;;;;;;4.83;4.03;;;0.20;43.30;;;;;;5071036;28;38999;-81
2020/12/27 08:41:16;;;;;;;9.53;4.20;;;0.40;43.40;;;;;;5038473;28;37664;-80
2020/12/27 08:44:20;;;;;;;6.00;5.40;;;0.40;43.00;;;;;;5062307;28;38361;-80
2020/12/27 08:46:51;;;;;;;7.73;5.90;;;0.60;43.60;;;;;;5041577;28;39362;-81
2020/12/27 08:49:29;;;;;;;8.90;6.50;;;0.80;44.10;;;;;;5071000;28;39056;-81
2020/12/27 08:52:04;;;;;;;9.90;6.97;;;0.90;44.10;;;;;;5053012;28;37695;-80
2020/12/27 08:54:33;;;;;;;11.03;7.20;;;1.00;44.20;;;;;;5072864;28;37564;-81
2020/12/27 08:57:04;;;;;;;8.30;6.70;;;1.10;44.00;;;;;;5072561;28;39468;-80
2020/12/27 08:59:31;;;;;;;10.03;6.97;;;1.20;44.00;;;;;;5072304;28;39115;-80
2020/12/27 09:02:07;;;;;;;9.27;6.83;;;1.20;44.50;;;;;;5068840;28;38070;-80
2020/12/27 09:04:35;;;;;;;12.20;7.30;;;1.20;44.00;;;;;;5070388;28;37584;-80
2020/12/27 09:07:03;;;;;;;8.00;6.90;;;1.30;43.90;;;;;;5072340;28;40106;-79
2020/12/27 09:09:32;;;;;;;8.50;6.17;;;1.30;43.90;;;;;;5072145;28;39218;-80
2020/12/27 09:11:59;;;;;;;8.53;6.60;;;1.40;43.90;;;;;;5072498;28;38166;-80
2020/12/27 09:14:34;;;;;;;8.33;6.70;;;1.50;43.70;;;;;;5052838;28;35727;-80
2020/12/27 09:17:04;;;;;;;7.00;5.23;;;1.60;43.50;;;;;;5071072;28;39900;-81
2020/12/27 09:19:34;;;;;;;10.07;6.67;;;1.60;43.40;;;;;;5072256;28;39281;-81
2020/12/27 09:22:04;;;;;;;8.33;6.40;;;1.70;43.20;;;;;;5072247;28;37902;-81
2020/12/27 09:24:31;;;;;;;6.60;5.17;;;1.80;43.20;;;;;;5053676;28;37477;-80
2020/12/27 09:27:09;;;;;;;7.90;5.87;;;1.80;43.20;;;;;;5054471;28;38847;-80
2020/12/27 09:29:36;;;;;;;11.20;6.30;;;1.90;42.80;;;;;;5034961;28;37826;-80
2020/12/27 09:32:13;;;;;;;7.90;6.47;;;1.90;42.70;;;;;;5067069;28;38420;-80
2020/12/27 09:34:41;;;;;;;7.97;6.33;;;2.10;42.80;;;;;;5053858;28;36450;-80
2020/12/27 09:37:13;;;;;;;8.57;6.80;;;2.20;42.50;;;;;;5071514;28;39729;-80
2020/12/27 09:39:40;;;;;;;9.20;6.83;;;2.40;42.10;;;;;;5072157;28;39173;-80
2020/12/27 09:42:21;;;;;;;7.50;6.53;;;2.50;41.90;;;;;;5071732;28;37807;-81
2020/12/27 09:44:50;;;;;;;7.40;6.70;;;2.70;41.70;;;;;;5068959;28;37408;-80
2020/12/27 09:47:28;;;;;;;8.00;6.60;;;2.80;41.30;;;;;;5053834;28;38679;-80
2020/12/27 09:50:04;;;;;;;5.20;4.60;;;2.90;40.70;;;;;;5068725;28;39080;-80
2020/12/27 09:52:42;;;;;;;5.10;4.07;;;2.90;39.70;;;;;;5053094;28;36973;-81
2020/12/27 09:55:09;;;;;;;3.40;3.10;;;2.80;39.20;;;;;;5050335;28;35645;-81
2020/12/27 09:57:36;;;;;;;4.40;4.00;;;2.60;38.80;;;;;;5063885;28;39229;-81
2020/12/27 10:00:05;;;;;;;8.93;4.00;;;2.40;38.60;;;;;;5039410;28;37882;-81
2020/12/27 10:02:33;;;;;;;4.80;3.00;;;2.30;38.80;;;;;;5050823;28;38042;-81
2020/12/27 10:05:00;;;;;;;6.70;3.43;;;2.30;38.50;;;;;;5041932;28;36042;-81
2020/12/27 10:07:28;;;;;;;3.80;3.23;;;1.90;39.20;;;;;;5039407;28;39724;-81
2020/12/27 10:09:56;;;;;;;5.17;4.30;;;1.90;39.40;;;;;;5053559;28;39154;-81
2020/12/27 10:12:23;;;;;;;4.27;3.77;;;1.90;39.80;;;;;;5051238;28;37713;-80
2020/12/27 10:14:53;;;;;;;5.50;3.57;;;1.90;39.70;;;;;;5054043;28;37669;-80
2020/12/27 10:17:20;;;;;;;4.20;3.27;;;1.70;40.00;;;;;;5046858;28;40011;-81
2020/12/27 10:23:36;;;;;;;4.43;3.80;;;1.70;40.70;;;;;;4983572;28;38884;-81
2020/12/27 10:26:06;;;;;;;5.20;3.77;;;1.60;40.90;;;;;;5043290;28;37954;-81
2020/12/27 10:28:35;;;;;;;5.00;3.27;;;1.70;40.80;;;;;;5046115;28;40682;-80
2020/12/27 10:31:02;;;;;;;4.80;3.70;;;1.80;41.10;;;;;;5037406;28;38782;-80
2020/12/27 10:33:29;;;;;;;5.07;4.00;;;2.00;40.60;;;;;;5037052;28;37642;-80
2020/12/27 10:35:58;;;;;;;4.27;3.30;;;2.00;40.10;;;;;;5050307;28;37968;-81
2020/12/27 10:38:28;;;;;;;4.13;3.10;;;2.20;40.20;;;;;;5054223;28;40373;-79
2020/12/27 10:40:55;;;;;;;2.37;2.13;;;2.20;40.30;;;;;;5054567;28;39121;-80
2020/12/27 10:43:22;;;;;;;4.80;3.63;;;2.10;40.40;;;;;;5053661;28;38034;-79
2020/12/27 10:45:49;;;;;;;4.60;3.07;;;2.20;40.50;;;;;;5031338;28;35753;-79
2020/12/27 10:48:16;;;;;;;4.90;3.57;;;2.00;40.30;;;;;;5053683;28;40105;-79
2020/12/27 10:50:43;;;;;;;3.43;2.63;;;1.80;40.70;;;;;;5051474;28;39241;-80
2020/12/27 10:53:10;;;;;;;4.30;2.93;;;1.80;41.00;;;;;;5052775;28;37808;-79
2020/12/27 10:55:37;;;;;;;4.57;3.43;;;1.80;41.10;;;;;;5049576;28;37329;-79
2020/12/27 10:58:04;;;;;;;4.27;3.50;;;1.80;41.20;;;;;;5051128;28;39649;-80
2020/12/27 11:00:32;;;;;;;5.23;3.53;;;1.80;41.60;;;;;;5068914;28;39516;-79
2020/12/27 11:03:01;;;;;;;6.27;4.20;;;1.90;41.60;;;;;;5073318;28;39570;-79
2020/12/27 11:05:28;;;;;;;4.23;3.20;;;1.90;41.70;;;;;;5067698;28;36893;-81
2020/12/27 11:07:57;;;;;;;3.67;3.00;;;1.90;41.50;;;;;;5074510;28;39478;-79
2020/12/27 11:10:24;;;;;;;3.97;3.23;;;1.90;41.40;;;;;;5073809;28;39128;-80
2020/12/27 11:12:51;;;;;;;3.80;3.50;;;1.90;41.70;;;;;;5074100;28;37950;-79
2020/12/27 11:15:19;;;;;;;4.80;3.30;;;1.90;41.90;;;;;;5056455;28;36498;-80
2020/12/27 11:17:47;;;;;;;4.33;2.90;;;2.10;41.60;;;;;;5055778;28;39832;-80
2020/12/27 11:20:14;;;;;;;4.30;3.50;;;2.10;41.50;;;;;;5054942;28;39022;-79
2020/12/27 11:22:44;;;;;;;5.30;3.20;;;2.00;41.50;;;;;;5073601;28;38918;-79
2020/12/27 11:25:11;;;;;;;4.13;3.07;;;2.00;41.80;;;;;;5046464;28;35892;-79
2020/12/27 11:27:38;;;;;;;4.80;3.33;;;2.10;41.80;;;;;;5073715;28;40549;-80
2020/12/27 11:30:06;;;;;;;4.17;3.00;;;2.20;41.60;;;;;;5073631;28;39815;-80
2020/12/27 11:32:33;;;;;;;4.87;3.30;;;2.20;41.90;;;;;;5071408;28;37506;-77
2020/12/27 11:35:01;;;;;;;4.10;3.27;;;2.20;41.80;;;;;;5069392;28;37476;-78
2020/12/27 11:37:28;;;;;;;3.60;3.30;;;2.30;41.80;;;;;;5072345;28;39323;-79
2020/12/27 11:39:55;;;;;;;3.77;3.30;;;2.40;41.50;;;;;;5055098;28;38112;-79
2020/12/27 11:42:25;;;;;;;5.60;3.60;;;2.50;41.50;;;;;;5069418;28;37598;-78
2020/12/27 11:44:52;;;;;;;5.27;3.53;;;2.40;41.30;;;;;;5073675;28;36928;-78
2020/12/27 11:47:19;;;;;;;4.00;3.60;;;2.40;41.60;;;;;;5073362;28;40740;-74
2020/12/27 11:49:47;;;;;;;6.13;3.43;;;2.50;41.40;;;;;;5054951;28;37585;-74
2020/12/27 11:52:18;;;;;;;4.90;3.67;;;2.50;41.50;;;;;;5055849;28;38139;-75
2020/12/27 11:54:45;;;;;;;4.20;3.40;;;2.40;41.50;;;;;;5066487;28;37323;-76
2020/12/27 11:57:12;;;;;;;5.30;3.90;;;2.40;41.80;;;;;;5055146;28;40806;-75
2020/12/27 11:59:39;;;;;;;6.23;4.03;;;2.50;41.60;;;;;;5053140;28;38987;-75
2020/12/27 12:02:06;;;;;;;3.63;3.10;;;2.70;41.50;;;;;;5073147;28;38293;-75
2020/12/27 12:04:35;;;;;;;5.20;3.60;;;2.70;41.50;;;;;;5071646;28;37580;-74
2020/12/27 12:07:05;;;;;;;8.20;4.07;;;2.70;41.60;;;;;;5053475;28;38576;-76
2020/12/27 12:09:32;;;;;;;4.10;3.70;;;2.80;41.40;;;;;;5055333;28;37847;-75
2020/12/27 12:11:59;;;;;;;4.20;3.40;;;2.80;41.30;;;;;;5073314;28;38950;-75
2020/12/27 12:14:26;;;;;;;4.60;3.70;;;2.90;41.30;;;;;;5061426;28;38359;-75
2020/12/27 12:16:55;;;;;;;4.00;3.23;;;2.80;41.20;;;;;;5060214;28;39693;-75
2020/12/27 12:19:25;;;;;;;4.47;3.23;;;2.90;41.40;;;;;;5055005;28;39062;-75
2020/12/27 12:21:52;;;;;;;4.83;3.80;;;3.00;41.20;;;;;;5065615;28;38519;-76
2020/12/27 12:24:19;;;;;;;4.63;3.73;;;3.00;41.20;;;;;;5061221;28;37018;-75
2020/12/27 12:26:47;;;;;;;3.83;3.13;;;3.10;41.10;;;;;;5063083;28;40413;-75
2020/12/27 12:29:17;;;;;;;3.53;3.23;;;3.20;40.80;;;;;;5065922;28;39355;-75
2020/12/27 12:31:45;;;;;;;6.30;4.70;;;3.30;40.60;;;;;;5067688;28;38520;-75
2020/12/27 12:34:12;;;;;;;4.17;3.50;;;3.30;40.00;;;;;;5029352;28;35596;-76
2020/12/27 12:36:39;;;;;;;3.70;3.20;;;3.20;40.50;;;;;;5062695;28;39912;-75
2020/12/27 12:39:06;;;;;;;6.23;3.10;;;3.30;40.40;;;;;;5053058;28;39141;-76
2020/12/27 12:41:33;;;;;;;4.20;3.80;;;3.40;40.10;;;;;;5065593;28;38043;-75
2020/12/27 12:44:01;;;;;;;5.47;3.63;;;3.40;40.10;;;;;;5065841;28;37748;-75
2020/12/27 12:46:29;;;;;;;4.73;3.10;;;3.30;40.00;;;;;;5051932;28;39243;-75
2020/12/27 12:48:56;;;;;;;4.13;3.30;;;3.20;40.10;;;;;;5068993;28;38764;-75
2020/12/27 12:51:23;;;;;;;5.73;3.53;;;3.10;40.30;;;;;;5065144;28;38984;-75
2020/12/27 12:53:50;;;;;;;4.07;2.73;;;3.10;40.30;;;;;;5072461;28;37248;-76
2020/12/27 12:56:20;;;;;;;3.77;2.80;;;3.00;40.70;;;;;;5049338;28;39107;-75
2020/12/27 12:58:47;;;;;;;4.53;3.40;;;2.90;41.20;;;;;;5053046;28;38945;-75
2020/12/27 13:01:14;;;;;;;6.23;3.23;;;2.90;40.90;;;;;;5063667;28;38176;-76
2020/12/27 13:03:42;;;;;;;4.07;3.30;;;3.00;40.90;;;;;;5037933;28;36808;-76
2020/12/27 13:06:10;;;;;;;3.63;3.00;;;3.10;40.60;;;;;;5068057;28;40363;-75
2020/12/27 13:08:38;;;;;;;4.97;3.33;;;2.90;40.30;;;;;;5052172;28;37885;-76
2020/12/27 13:11:07;;;;;;;4.90;2.87;;;2.90;40.70;;;;;;5065106;28;38841;-76
2020/12/27 13:13:34;;;;;;;4.97;3.40;;;2.90;40.80;;;;;;5064382;28;37364;-77
2020/12/27 13:16:01;;;;;;;3.70;2.73;;;2.80;41.00;;;;;;5069129;28;39495;-77
2020/12/27 13:18:29;;;;;;;4.10;3.00;;;2.80;41.00;;;;;;5062877;28;39867;-77
2020/12/27 13:20:56;;;;;;;3.60;2.90;;;2.90;41.20;;;;;;5071776;28;38325;-77
2020/12/27 13:23:28;;;;;;;4.00;3.20;;;2.90;40.70;;;;;;5061847;28;36855;-76